Time;durP1;ratioP1;P1;durP2;ratioP2;P2;SDS_P1;SDS_P2;PMS_P1;PMS_P2;Temp;Humidity;BMP_temperature;BMP_pressure;BME280_temperature;BME280_humidity;BME280_pressure;Samples;Min_cycle;Max_cycle;Signal;HPM_P1;HPM_P2
2023/08/06 00:01:28;;;;;;;7.80;3.38;;;15.30;85.20;;;;;;5005733;28;20654;-77
2023/08/06 00:03:55;;;;;;;9.13;3.03;;;15.30;85.40;;;;;;5002285;28;20065;-77
2023/08/06 00:06:22;;;;;;;10.38;3.33;;;15.30;85.40;;;;;;5006232;28;20046;-77
2023/08/06 00:08:48;;;;;;;7.43;2.58;;;15.30;85.50;;;;;;5007087;28;20045;-77
2023/08/06 00:11:15;;;;;;;14.07;3.22;;;15.30;85.00;;;;;;5004379;28;20050;-77
2023/08/06 00:13:42;;;;;;;7.63;2.60;;;15.30;85.30;;;;;;5004838;28;20053;-77
2023/08/06 00:16:13;;;;;;;6.22;2.70;;;15.30;85.00;;;;;;5005575;28;20053;-77
2023/08/06 00:18:40;;;;;;;6.75;3.40;;;15.30;85.10;;;;;;5022368;28;20507;-77
2023/08/06 00:21:07;;;;;;;7.65;3.08;;;15.30;85.00;;;;;;4997656;28;20060;-77
2023/08/06 00:23:34;;;;;;;10.45;2.97;;;15.30;85.40;;;;;;5003047;28;20053;-77
2023/08/06 00:26:01;;;;;;;6.90;2.47;;;15.40;85.50;;;;;;5013422;28;20100;-77
2023/08/06 00:28:28;;;;;;;6.28;2.83;;;15.40;85.00;;;;;;4999781;28;20479;-77
2023/08/06 00:30:56;;;;;;;8.75;3.15;;;15.40;85.20;;;;;;5017790;28;20056;-76
2023/08/06 00:33:23;;;;;;;9.30;3.20;;;15.40;85.40;;;;;;5000785;28;20053;-76
2023/08/06 00:35:51;;;;;;;6.07;2.67;;;15.40;85.50;;;;;;5000418;28;20126;-76
2023/08/06 00:38:17;;;;;;;6.60;2.80;;;15.30;85.30;;;;;;5003130;28;20077;-76
2023/08/06 00:40:44;;;;;;;10.55;2.90;;;15.30;85.90;;;;;;4998057;28;20054;-77
2023/08/06 00:43:11;;;;;;;7.60;3.17;;;15.30;85.50;;;;;;5002202;28;20050;-77
2023/08/06 00:45:38;;;;;;;10.25;3.22;;;15.30;85.90;;;;;;5001107;28;20049;-77
2023/08/06 00:48:06;;;;;;;7.28;3.80;;;15.20;86.20;;;;;;5004586;28;20089;-77
2023/08/06 00:50:34;;;;;;;7.35;3.05;;;15.20;86.00;;;;;;5003873;28;20053;-77
2023/08/06 00:53:01;;;;;;;11.20;3.20;;;15.20;86.50;;;;;;5011379;28;20042;-77
2023/08/06 00:55:29;;;;;;;13.40;3.17;;;15.10;86.00;;;;;;5019467;28;20074;-76
2023/08/06 00:57:56;;;;;;;10.23;2.90;;;15.10;86.20;;;;;;5005122;28;20108;-77
2023/08/06 01:00:25;;;;;;;5.70;2.95;;;15.00;86.30;;;;;;4997417;28;20050;-77
2023/08/06 01:02:53;;;;;;;6.85;3.00;;;15.00;86.60;;;;;;5001193;28;20204;-77
2023/08/06 01:05:22;;;;;;;8.88;3.10;;;15.00;86.60;;;;;;4999357;28;20050;-77
2023/08/06 01:08:16;;;;;;;6.60;2.85;;;14.90;86.90;;;;;;5003892;28;20046;-77
2023/08/06 01:11:03;;;;;;;7.80;2.80;;;14.90;86.80;;;;;;5014603;28;20045;-76
2023/08/06 01:13:49;;;;;;;8.13;3.13;;;14.90;87.40;;;;;;4985638;28;20567;-76
2023/08/06 01:16:18;;;;;;;7.30;3.13;;;14.80;87.30;;;;;;5005268;28;20056;-77
2023/08/06 01:18:49;;;;;;;8.90;3.20;;;14.80;87.30;;;;;;5002278;28;20054;-77
2023/08/06 01:21:17;;;;;;;8.82;3.15;;;14.80;87.80;;;;;;5019901;28;20057;-77
2023/08/06 01:23:45;;;;;;;8.00;3.28;;;14.80;87.70;;;;;;5001581;28;20897;-77
2023/08/06 01:26:27;;;;;;;11.82;3.22;;;14.80;88.10;;;;;;5002887;28;20782;-76
2023/08/06 01:29:12;;;;;;;9.05;3.20;;;14.70;87.70;;;;;;5002237;28;20050;-77
2023/08/06 01:31:43;;;;;;;10.45;3.40;;;14.70;88.60;;;;;;5000572;28;20164;-77
2023/08/06 01:34:17;;;;;;;9.93;3.53;;;14.70;88.00;;;;;;5003298;28;20052;-77
2023/08/06 01:36:44;;;;;;;9.52;3.03;;;14.70;88.10;;;;;;5004260;28;20046;-77
2023/08/06 01:39:11;;;;;;;6.20;3.63;;;14.70;88.40;;;;;;5002798;28;20054;-76
2023/08/06 01:41:38;;;;;;;8.30;3.38;;;14.60;88.00;;;;;;5004484;28;20817;-77
2023/08/06 01:44:05;;;;;;;10.52;3.75;;;14.60;88.00;;;;;;5001300;28;20061;-76
2023/08/06 01:46:32;;;;;;;6.25;3.05;;;14.60;88.20;;;;;;4998897;28;20846;-77
2023/08/06 01:48:59;;;;;;;10.98;4.00;;;14.60;88.40;;;;;;4998205;28;20053;-76
2023/08/06 01:51:26;;;;;;;9.52;3.60;;;14.60;88.20;;;;;;4999940;28;20115;-76
2023/08/06 01:53:53;;;;;;;9.02;3.28;;;14.60;88.60;;;;;;4998371;28;20045;-77
2023/08/06 01:56:20;;;;;;;7.20;3.42;;;14.60;88.30;;;;;;5002661;28;20050;-76
2023/08/06 01:58:47;;;;;;;6.97;3.53;;;14.50;88.40;;;;;;5001018;28;20046;-77
2023/08/06 02:01:14;;;;;;;9.93;3.40;;;14.50;88.50;;;;;;5000345;28;20100;-77
2023/08/06 02:03:41;;;;;;;10.10;3.55;;;14.50;88.80;;;;;;5017000;28;20130;-77
2023/08/06 02:06:08;;;;;;;8.65;3.38;;;14.50;88.40;;;;;;5003255;28;20060;-77
2023/08/06 02:08:34;;;;;;;8.07;3.28;;;14.60;88.50;;;;;;5015675;28;20797;-77
2023/08/06 02:11:02;;;;;;;9.23;3.20;;;14.60;88.40;;;;;;5011016;28;20210;-77
2023/08/06 02:13:29;;;;;;;6.88;3.10;;;14.60;88.40;;;;;;5000676;28;20058;-76
2023/08/06 02:15:56;;;;;;;7.95;3.10;;;14.60;88.70;;;;;;5002081;28;20050;-77
2023/08/06 02:18:23;;;;;;;12.90;3.65;;;14.60;88.70;;;;;;5014593;28;20050;-77
2023/08/06 02:20:57;;;;;;;11.38;3.42;;;14.60;88.20;;;;;;5003506;28;20085;-77
2023/08/06 02:23:25;;;;;;;9.45;3.58;;;14.60;88.00;;;;;;5000538;28;20053;-77
2023/08/06 02:25:59;;;;;;;11.50;3.75;;;14.60;88.60;;;;;;5000617;28;20052;-76
2023/08/06 02:28:26;;;;;;;5.43;3.50;;;14.50;88.00;;;;;;5000036;28;20070;-77
2023/08/06 02:30:53;;;;;;;14.05;4.05;;;14.50;88.30;;;;;;5001196;28;20056;-76
2023/08/06 02:33:20;;;;;;;7.93;3.80;;;14.50;88.20;;;;;;5003095;28;20081;-76
2023/08/06 02:35:47;;;;;;;8.05;3.60;;;14.50;88.50;;;;;;4998526;28;20092;-76
2023/08/06 02:38:14;;;;;;;4.97;3.47;;;14.50;88.60;;;;;;5014809;28;20418;-77
2023/08/06 02:40:45;;;;;;;12.00;4.10;;;14.40;89.00;;;;;;5015477;28;20387;-77
2023/08/06 02:43:15;;;;;;;12.48;3.83;;;14.40;89.20;;;;;;4995227;28;20132;-77
2023/08/06 02:45:41;;;;;;;9.70;3.35;;;14.40;88.90;;;;;;5002232;28;20518;-77
2023/08/06 02:48:09;;;;;;;19.10;3.65;;;14.40;89.10;;;;;;5001270;28;20657;-77
2023/08/06 02:50:42;;;;;;;10.98;3.95;;;14.30;89.30;;;;;;4998300;28;20053;-77
2023/08/06 02:53:09;;;;;;;9.25;3.47;;;14.30;89.40;;;;;;4996088;28;20111;-77
2023/08/06 02:55:36;;;;;;;9.80;3.70;;;14.30;89.40;;;;;;5001942;28;20056;-77
2023/08/06 02:58:03;;;;;;;8.50;3.47;;;14.20;89.70;;;;;;5013595;28;20177;-77
2023/08/06 03:00:30;;;;;;;13.25;3.95;;;14.20;89.80;;;;;;5001895;28;20143;-77
2023/08/06 03:02:56;;;;;;;10.07;3.72;;;14.20;89.80;;;;;;5001260;28;20053;-77
2023/08/06 03:05:23;;;;;;;16.45;3.80;;;14.20;90.30;;;;;;4991101;28;20773;-76
2023/08/06 03:07:50;;;;;;;14.07;4.28;;;14.20;90.40;;;;;;5015277;28;20042;-77
2023/08/06 03:10:17;;;;;;;7.30;3.53;;;14.10;90.40;;;;;;4998331;28;20820;-76
2023/08/06 03:12:44;;;;;;;10.13;3.90;;;14.10;90.50;;;;;;5015582;28;20053;-76
2023/08/06 03:15:11;;;;;;;13.30;4.10;;;14.10;90.60;;;;;;4995087;28;20124;-76
2023/08/06 03:17:38;;;;;;;6.72;3.30;;;14.10;91.10;;;;;;5014125;28;20061;-76
2023/08/06 03:20:06;;;;;;;8.52;3.42;;;14.10;91.30;;;;;;4988920;28;20527;-76
2023/08/06 03:22:33;;;;;;;11.07;4.15;;;14.10;91.60;;;;;;4999968;28;20128;-77
2023/08/06 03:24:59;;;;;;;6.43;4.00;;;14.10;91.80;;;;;;5009932;28;20053;-77
2023/08/06 03:27:26;;;;;;;6.07;3.55;;;14.10;92.30;;;;;;4998083;28;20068;-77
2023/08/06 03:29:53;;;;;;;12.80;3.67;;;14.10;92.30;;;;;;5016547;28;20510;-76
2023/08/06 03:32:20;;;;;;;7.85;3.42;;;14.00;92.20;;;;;;5000813;28;20100;-77
2023/08/06 03:34:47;;;;;;;14.00;3.63;;;14.00;92.20;;;;;;5008330;28;20054;-77
2023/08/06 03:37:14;;;;;;;12.52;3.85;;;14.00;92.50;;;;;;4998627;28;20058;-76
2023/08/06 03:39:41;;;;;;;8.85;3.47;;;14.10;92.50;;;;;;4997867;28;20129;-76
2023/08/06 03:42:08;;;;;;;12.82;4.38;;;14.10;92.60;;;;;;5003293;28;20058;-76
2023/08/06 03:44:35;;;;;;;10.98;3.88;;;14.10;92.60;;;;;;5001446;28;20080;-76
2023/08/06 03:47:01;;;;;;;10.38;3.53;;;14.10;92.50;;;;;;4997542;28;20041;-77
2023/08/06 03:49:29;;;;;;;9.00;3.75;;;14.10;92.80;;;;;;5004086;28;20042;-76
2023/08/06 03:51:55;;;;;;;9.30;3.85;;;14.10;92.80;;;;;;5000885;28;20512;-76
2023/08/06 03:54:22;;;;;;;7.82;3.65;;;14.10;92.90;;;;;;5009599;28;20747;-76
2023/08/06 03:56:49;;;;;;;7.28;4.10;;;14.10;92.90;;;;;;5003975;28;20550;-76
2023/08/06 03:59:16;;;;;;;8.90;3.25;;;14.10;93.00;;;;;;5019698;28;20049;-76
2023/08/06 04:01:43;;;;;;;12.73;3.55;;;14.10;92.90;;;;;;4999795;28;20046;-76
2023/08/06 04:04:10;;;;;;;9.27;3.50;;;14.10;92.70;;;;;;4997564;28;20140;-76
2023/08/06 04:06:36;;;;;;;10.93;3.63;;;14.10;93.10;;;;;;5016382;28;20057;-76
2023/08/06 04:09:03;;;;;;;14.15;4.15;;;14.10;92.70;;;;;;5017672;28;20145;-76
2023/08/06 04:11:30;;;;;;;8.13;4.00;;;14.20;92.80;;;;;;5002010;28;20042;-76
2023/08/06 04:13:57;;;;;;;8.38;3.88;;;14.20;92.50;;;;;;5002816;28;20077;-76
2023/08/06 04:16:26;;;;;;;14.93;3.80;;;14.20;92.70;;;;;;5002402;28;20136;-76
2023/08/06 04:18:55;;;;;;;12.00;4.00;;;14.20;92.70;;;;;;5017795;28;20506;-76
2023/08/06 04:21:22;;;;;;;16.65;3.75;;;14.30;92.60;;;;;;5003874;28;20046;-76
2023/08/06 04:23:49;;;;;;;14.52;3.78;;;14.30;92.40;;;;;;5003406;28;20731;-76
2023/08/06 04:26:16;;;;;;;12.30;3.53;;;14.30;92.70;;;;;;5016090;28;20052;-76
2023/08/06 04:28:42;;;;;;;6.00;3.35;;;14.30;92.40;;;;;;5000018;28;20797;-76
2023/08/06 04:31:10;;;;;;;9.38;3.65;;;14.30;92.50;;;;;;5003856;28;20050;-76
2023/08/06 04:33:37;;;;;;;7.82;3.65;;;14.30;92.60;;;;;;5000135;28;20440;-77
2023/08/06 04:36:04;;;;;;;8.88;3.42;;;14.40;92.20;;;;;;5004308;28;20687;-76
2023/08/06 04:38:31;;;;;;;10.30;3.70;;;14.40;92.10;;;;;;5013298;28;20077;-76
2023/08/06 04:40:58;;;;;;;12.65;3.78;;;14.40;91.90;;;;;;5002081;28;20081;-76
2023/08/06 04:43:25;;;;;;;8.27;3.35;;;14.50;91.90;;;;;;5004740;28;20050;-76
2023/08/06 04:45:54;;;;;;;7.65;3.67;;;14.50;91.90;;;;;;5002686;28;20111;-76
2023/08/06 04:48:22;;;;;;;8.90;3.72;;;14.60;91.60;;;;;;5003993;28;20123;-76
2023/08/06 04:50:50;;;;;;;14.63;4.00;;;14.60;91.40;;;;;;5002477;28;20050;-77
2023/08/06 04:53:17;;;;;;;7.25;3.55;;;14.60;91.20;;;;;;5002311;28;20077;-76
2023/08/06 04:55:44;;;;;;;13.32;3.55;;;14.70;91.60;;;;;;5001412;28;20058;-76
2023/08/06 04:58:13;;;;;;;11.23;3.65;;;14.70;91.70;;;;;;5015783;28;20143;-76
2023/08/06 05:00:40;;;;;;;13.73;3.65;;;14.80;91.40;;;;;;5017411;28;20077;-77
2023/08/06 05:03:07;;;;;;;8.30;3.42;;;14.80;91.30;;;;;;5018665;28;20062;-76
2023/08/06 05:05:34;;;;;;;6.70;3.42;;;14.90;91.30;;;;;;5003116;28;20052;-76
2023/08/06 05:08:01;;;;;;;7.00;3.83;;;14.90;90.30;;;;;;5001168;28;20049;-76
2023/08/06 05:10:28;;;;;;;11.50;3.58;;;14.90;90.60;;;;;;5001223;28;20050;-76
2023/08/06 05:12:55;;;;;;;10.10;3.53;;;14.90;90.80;;;;;;5002725;28;20057;-76
2023/08/06 05:15:22;;;;;;;11.73;3.95;;;14.90;90.50;;;;;;5016072;28;20086;-76
2023/08/06 05:17:49;;;;;;;9.13;4.00;;;15.00;90.90;;;;;;4999600;28;20060;-76
2023/08/06 05:20:17;;;;;;;7.30;3.83;;;15.00;90.10;;;;;;5002444;28;20065;-76
2023/08/06 05:22:44;;;;;;;9.65;3.83;;;15.00;90.40;;;;;;4998640;28;20137;-76
2023/08/06 05:25:13;;;;;;;9.00;3.47;;;15.10;90.40;;;;;;5004594;28;20058;-76
2023/08/06 05:27:40;;;;;;;10.07;3.80;;;15.10;90.40;;;;;;4995558;28;20120;-76
2023/08/06 05:30:08;;;;;;;9.88;4.35;;;15.10;90.60;;;;;;5013430;28;20057;-76
2023/08/06 05:32:35;;;;;;;8.35;3.90;;;15.10;90.80;;;;;;5001160;28;20814;-76
2023/08/06 05:35:02;;;;;;;7.85;3.88;;;15.20;90.30;;;;;;4999792;28;20479;-76
2023/08/06 05:37:29;;;;;;;11.65;4.18;;;15.10;90.30;;;;;;5021063;28;20129;-76
2023/08/06 05:39:56;;;;;;;13.18;4.47;;;15.20;90.30;;;;;;5005296;28;20132;-76
2023/08/06 05:42:23;;;;;;;8.23;4.32;;;15.20;90.40;;;;;;5006206;28;20101;-77
2023/08/06 05:44:49;;;;;;;13.23;4.55;;;15.20;90.20;;;;;;5007959;28;20048;-76
2023/08/06 05:47:16;;;;;;;12.77;4.32;;;15.20;89.80;;;;;;5002865;28;20097;-77
2023/08/06 05:49:43;;;;;;;15.40;4.20;;;15.30;89.80;;;;;;5003748;28;20046;-76
2023/08/06 05:52:10;;;;;;;17.92;4.03;;;15.30;89.90;;;;;;4999657;28;20133;-76
2023/08/06 05:54:37;;;;;;;11.85;4.75;;;15.40;89.60;;;;;;4997816;28;20077;-77
2023/08/06 05:57:04;;;;;;;8.55;4.53;;;15.50;89.80;;;;;;4996349;28;20058;-76
2023/08/06 05:59:31;;;;;;;10.07;4.13;;;15.50;89.70;;;;;;4993885;28;20050;-76
2023/08/06 06:01:58;;;;;;;9.77;3.78;;;15.50;89.60;;;;;;4998976;28;20050;-76
2023/08/06 06:04:25;;;;;;;9.90;4.20;;;15.50;89.80;;;;;;4997016;28;20133;-76
2023/08/06 06:06:52;;;;;;;11.00;3.95;;;15.70;89.60;;;;;;5000608;28;20116;-76
2023/08/06 06:09:19;;;;;;;14.30;3.95;;;15.70;89.00;;;;;;5003226;28;20046;-76
2023/08/06 06:11:45;;;;;;;12.13;4.50;;;15.80;89.10;;;;;;4999943;28;20586;-76
2023/08/06 06:14:12;;;;;;;9.48;4.28;;;15.90;89.50;;;;;;5002257;28;20112;-76
2023/08/06 06:16:39;;;;;;;13.00;3.88;;;15.90;88.80;;;;;;5017558;28;20054;-76
2023/08/06 06:19:06;;;;;;;8.15;3.80;;;16.00;88.80;;;;;;5002120;28;20133;-76
2023/08/06 06:21:33;;;;;;;8.13;3.85;;;16.10;88.20;;;;;;5003448;28;20054;-76
2023/08/06 06:24:00;;;;;;;10.80;3.40;;;16.10;88.30;;;;;;4998877;28;20053;-76
2023/08/06 06:26:26;;;;;;;6.80;3.40;;;16.20;88.10;;;;;;4996918;28;20081;-76
2023/08/06 06:28:53;;;;;;;13.77;4.05;;;16.30;88.10;;;;;;5004544;28;20132;-76
2023/08/06 06:31:20;;;;;;;7.40;3.05;;;16.40;87.40;;;;;;5001972;28;20119;-76
2023/08/06 06:33:47;;;;;;;7.90;3.88;;;16.40;86.80;;;;;;5001543;28;20049;-76
2023/08/06 06:36:14;;;;;;;6.82;3.53;;;16.50;86.90;;;;;;4999552;28;20138;-76
2023/08/06 06:38:41;;;;;;;8.73;3.40;;;16.50;86.70;;;;;;5010111;28;20142;-76
2023/08/06 06:41:09;;;;;;;6.13;3.08;;;16.60;86.40;;;;;;5003068;28;20592;-76
2023/08/06 06:43:38;;;;;;;9.30;3.40;;;16.70;85.90;;;;;;5002778;28;20688;-76
2023/08/06 06:46:04;;;;;;;6.85;3.58;;;16.70;85.80;;;;;;4999283;28;20041;-76
2023/08/06 06:48:32;;;;;;;6.25;3.33;;;16.80;85.50;;;;;;5002083;28;20049;-76
2023/08/06 06:51:00;;;;;;;12.88;3.85;;;16.80;85.40;;;;;;4999749;28;20061;-76
2023/08/06 06:53:30;;;;;;;5.28;3.03;;;16.90;85.70;;;;;;5002182;28;20070;-76
2023/08/06 06:56:02;;;;;;;8.25;3.20;;;17.10;85.20;;;;;;5016343;28;20771;-76
2023/08/06 06:58:29;;;;;;;5.35;2.97;;;17.10;84.50;;;;;;5000565;28;20050;-76
2023/08/06 07:00:56;;;;;;;7.68;3.33;;;17.20;84.30;;;;;;5000911;28;20144;-76
2023/08/06 07:03:23;;;;;;;8.05;3.15;;;17.20;84.80;;;;;;5002281;28;20124;-77
2023/08/06 07:05:50;;;;;;;12.38;3.20;;;17.30;83.90;;;;;;5003576;28;20050;-77
2023/08/06 07:08:17;;;;;;;10.80;3.17;;;17.30;84.00;;;;;;4998918;28;20584;-77
2023/08/06 07:10:44;;;;;;;13.00;2.90;;;17.40;83.60;;;;;;5004626;28;20151;-77
2023/08/06 07:13:11;;;;;;;11.57;3.20;;;17.50;83.70;;;;;;5000287;28;20141;-77
2023/08/06 07:15:38;;;;;;;6.85;2.85;;;17.50;83.30;;;;;;5004935;28;20077;-78
2023/08/06 07:18:05;;;;;;;4.97;2.85;;;17.60;83.70;;;;;;5006305;28;20062;-76
2023/08/06 07:20:33;;;;;;;7.28;2.97;;;17.60;83.50;;;;;;5009101;28;20487;-78
2023/08/06 07:23:01;;;;;;;9.48;2.67;;;17.70;83.00;;;;;;4997463;28;20543;-76
2023/08/06 07:25:28;;;;;;;6.53;3.10;;;17.70;82.10;;;;;;4997096;28;20115;-80
2023/08/06 07:27:56;;;;;;;8.13;3.15;;;17.80;82.20;;;;;;5002552;28;20136;-77
2023/08/06 07:30:23;;;;;;;5.45;2.45;;;17.80;82.10;;;;;;5000050;28;20053;-77
2023/08/06 07:32:50;;;;;;;6.88;3.05;;;17.90;82.10;;;;;;4988388;28;20050;-76
2023/08/06 07:35:17;;;;;;;7.95;2.60;;;17.80;81.70;;;;;;4992885;28;20045;-76
2023/08/06 07:37:44;;;;;;;8.30;3.08;;;17.90;82.00;;;;;;5001185;28;20058;-77
2023/08/06 07:40:11;;;;;;;4.78;2.42;;;17.80;81.80;;;;;;4997937;28;20144;-77
2023/08/06 07:42:38;;;;;;;9.80;3.00;;;18.00;82.30;;;;;;4997695;28;20108;-77
2023/08/06 07:45:05;;;;;;;7.88;2.80;;;18.10;82.50;;;;;;5001407;28;20131;-77
2023/08/06 07:47:32;;;;;;;6.50;2.65;;;18.10;81.80;;;;;;5001493;28;20057;-77
2023/08/06 07:49:59;;;;;;;5.50;2.60;;;18.30;82.30;;;;;;4994115;28;20466;-78
2023/08/06 07:52:26;;;;;;;11.32;3.00;;;18.40;81.40;;;;;;5014341;28;20046;-77
2023/08/06 07:54:53;;;;;;;7.30;2.67;;;18.40;81.10;;;;;;5001683;28;20050;-77
2023/08/06 07:57:20;;;;;;;7.32;2.78;;;18.40;80.90;;;;;;5000149;28;20092;-77
2023/08/06 07:59:47;;;;;;;8.52;2.40;;;18.40;80.80;;;;;;5016880;28;20041;-78
2023/08/06 08:02:14;;;;;;;8.02;2.83;;;18.50;81.10;;;;;;4998659;28;20481;-78
2023/08/06 08:04:40;;;;;;;4.88;2.55;;;18.50;81.40;;;;;;5016113;28;20217;-76
2023/08/06 08:07:09;;;;;;;5.13;2.45;;;18.60;81.10;;;;;;4999381;28;20521;-76
2023/08/06 08:09:36;;;;;;;7.63;2.33;;;18.70;80.80;;;;;;5002222;28;20137;-78
2023/08/06 08:12:03;;;;;;;4.25;2.45;;;18.80;81.00;;;;;;4998025;28;20128;-77
2023/08/06 08:14:35;;;;;;;8.13;2.75;;;18.80;80.70;;;;;;4998456;28;20069;-77
2023/08/06 08:17:03;;;;;;;7.32;3.00;;;18.90;80.70;;;;;;4998484;28;20100;-76
2023/08/06 08:19:29;;;;;;;6.63;2.60;;;18.90;81.00;;;;;;5002860;28;20743;-76
2023/08/06 08:21:56;;;;;;;4.05;2.20;;;19.00;80.40;;;;;;5020927;28;20483;-76
2023/08/06 08:24:24;;;;;;;7.60;3.00;;;19.00;81.30;;;;;;5002577;28;20143;-77
2023/08/06 08:26:52;;;;;;;11.85;3.03;;;19.20;80.90;;;;;;5003276;28;20151;-77
2023/08/06 08:29:22;;;;;;;10.13;2.42;;;19.30;80.50;;;;;;5005575;28;20141;-79
2023/08/06 08:31:50;;;;;;;8.27;2.75;;;19.30;80.20;;;;;;5001861;28;20366;-76
2023/08/06 08:34:17;;;;;;;17.90;3.03;;;19.30;80.10;;;;;;5004109;28;20143;-78
2023/08/06 08:36:47;;;;;;;17.42;3.42;;;19.40;80.00;;;;;;5003211;28;20096;-79
2023/08/06 08:39:14;;;;;;;5.18;2.78;;;19.60;80.70;;;;;;5000481;28;20057;-78
2023/08/06 08:41:42;;;;;;;9.68;2.90;;;19.60;79.60;;;;;;5006444;28;20056;-78
2023/08/06 08:44:10;;;;;;;9.70;2.97;;;19.70;79.50;;;;;;5022156;28;20486;-78
2023/08/06 08:46:40;;;;;;;5.55;2.42;;;19.80;79.50;;;;;;5014472;28;20398;-80
2023/08/06 08:49:07;;;;;;;9.73;2.80;;;19.80;79.30;;;;;;5007573;28;20145;-79
2023/08/06 08:51:35;;;;;;;7.85;2.30;;;19.80;79.30;;;;;;5004093;28;20124;-79
2023/08/06 08:54:07;;;;;;;12.90;2.42;;;19.80;79.20;;;;;;5003397;28;20054;-79
2023/08/06 08:56:35;;;;;;;6.28;2.65;;;20.00;79.20;;;;;;5005273;28;20108;-79
2023/08/06 08:59:02;;;;;;;3.72;2.22;;;20.10;79.40;;;;;;5018099;28;20049;-79
2023/08/06 09:01:29;;;;;;;5.72;2.53;;;20.10;78.90;;;;;;5002116;28;20050;-77
2023/08/06 09:03:57;;;;;;;6.22;2.20;;;20.30;79.60;;;;;;5002286;28;20077;-76
2023/08/06 09:06:27;;;;;;;7.00;2.45;;;20.50;78.40;;;;;;5005787;28;20050;-76
2023/08/06 09:09:06;;;;;;;10.73;2.38;;;20.40;77.90;;;;;;5006731;28;20122;-76
2023/08/06 09:11:39;;;;;;;3.72;2.20;;;20.40;77.90;;;;;;5003099;28;20132;-76
2023/08/06 09:14:08;;;;;;;4.90;2.50;;;20.50;78.20;;;;;;5002093;28;20050;-78
2023/08/06 09:16:38;;;;;;;6.18;2.58;;;20.50;77.60;;;;;;5002909;28;20042;-78
2023/08/06 09:19:10;;;;;;;4.10;2.35;;;20.70;77.70;;;;;;5003751;28;20089;-81
2023/08/06 09:21:38;;;;;;;13.82;2.70;;;20.80;78.10;;;;;;4999853;28;20524;-78
2023/08/06 09:24:10;;;;;;;4.97;2.45;;;20.90;77.60;;;;;;5003359;28;20140;-78
2023/08/06 09:26:41;;;;;;;7.55;2.20;;;21.00;76.70;;;;;;5002308;28;20046;-77
2023/08/06 09:29:11;;;;;;;8.88;2.20;;;20.90;76.10;;;;;;4999359;28;20151;-77
2023/08/06 09:31:48;;;;;;;9.10;2.15;;;20.90;76.60;;;;;;5011574;28;20081;-77
2023/08/06 09:34:22;;;;;;;7.68;2.20;;;20.80;77.20;;;;;;5001936;28;20060;-77
2023/08/06 09:36:56;;;;;;;7.53;2.47;;;20.80;76.40;;;;;;5000923;28;20464;-78
2023/08/06 09:39:27;;;;;;;3.75;2.20;;;20.90;77.60;;;;;;5008077;28;20052;-86
2023/08/06 09:41:59;;;;;;;6.70;2.50;;;20.90;75.80;;;;;;5007556;28;20042;-79
2023/08/06 09:44:27;;;;;;;4.10;2.30;;;20.80;76.20;;;;;;5004566;28;20053;-78
2023/08/06 09:46:56;;;;;;;5.18;2.10;;;20.80;75.40;;;;;;5006357;28;20104;-78
2023/08/06 09:49:33;;;;;;;7.30;2.70;;;21.00;76.70;;;;;;5003804;28;20046;-77
2023/08/06 09:52:00;;;;;;;6.03;2.38;;;21.00;75.80;;;;;;5020388;28;20050;-76
2023/08/06 09:54:28;;;;;;;4.25;2.03;;;21.10;75.80;;;;;;5000211;28;20056;-78
2023/08/06 09:56:56;;;;;;;5.82;2.55;;;21.10;74.10;;;;;;5005443;28;20150;-79
2023/08/06 09:59:24;;;;;;;8.98;2.58;;;21.20;74.90;;;;;;5005239;28;20131;-79
2023/08/06 10:01:51;;;;;;;5.35;2.15;;;21.40;73.40;;;;;;5005683;28;20060;-78
2023/08/06 10:04:20;;;;;;;4.40;1.90;;;21.40;73.60;;;;;;5004514;28;20049;-83
2023/08/06 10:06:53;;;;;;;6.68;1.77;;;21.40;74.20;;;;;;5010062;28;20085;-82
2023/08/06 10:09:20;;;;;;;4.40;2.10;;;21.40;73.10;;;;;;5010202;28;20058;-81
2023/08/06 10:11:53;;;;;;;5.90;2.53;;;21.20;73.60;;;;;;5008255;28;20045;-83
2023/08/06 10:14:28;;;;;;;6.18;2.05;;;21.20;73.10;;;;;;5011392;28;20049;-83
2023/08/06 10:16:57;;;;;;;5.53;2.30;;;21.20;73.50;;;;;;5012987;28;20110;-84
2023/08/06 10:19:26;;;;;;;5.70;3.00;;;21.30;74.00;;;;;;5027439;28;20077;-84
2023/08/06 10:22:13;;;;;;;6.32;2.13;;;21.30;74.30;;;;;;5013847;28;20081;-84
2023/08/06 10:24:52;;;;;;;7.82;2.45;;;21.30;73.20;;;;;;5015785;28;20046;-83
2023/08/06 10:27:41;;;;;;;8.32;2.47;;;21.30;72.70;;;;;;5011435;28;20139;-83
2023/08/06 10:30:29;;;;;;;8.50;2.45;;;21.20;72.90;;;;;;5010025;28;20620;-84
2023/08/06 10:32:57;;;;;;;5.57;2.38;;;21.10;72.80;;;;;;5016865;28;20038;-83
2023/08/06 10:35:43;;;;;;;10.23;2.92;;;21.20;72.60;;;;;;5015731;28;20046;-83
2023/08/06 10:38:21;;;;;;;8.73;2.58;;;21.20;73.10;;;;;;5002697;28;20065;-81
2023/08/06 10:40:52;;;;;;;7.13;2.85;;;21.20;72.90;;;;;;5012140;28;20054;-83
2023/08/06 10:43:39;;;;;;;9.95;2.55;;;21.30;72.60;;;;;;5027570;28;20096;-83
2023/08/06 10:46:11;;;;;;;11.55;2.47;;;21.20;72.00;;;;;;5012231;28;20081;-83
2023/08/06 10:48:45;;;;;;;9.80;2.63;;;21.20;71.20;;;;;;5011877;28;20375;-83
2023/08/06 10:51:13;;;;;;;9.73;2.75;;;21.10;71.00;;;;;;5011905;28;20046;-82
2023/08/06 10:53:45;;;;;;;5.10;2.45;;;20.90;71.60;;;;;;5012220;28;20042;-83
2023/08/06 10:56:22;;;;;;;6.93;2.40;;;21.00;72.90;;;;;;5025864;28;20104;-83
2023/08/06 10:58:50;;;;;;;7.43;2.55;;;21.10;72.30;;;;;;5009536;28;20064;-83
2023/08/06 11:01:17;;;;;;;5.13;2.13;;;21.10;71.90;;;;;;5031131;28;20046;-83
2023/08/06 11:03:46;;;;;;;7.80;2.38;;;21.10;70.00;;;;;;5012441;28;20050;-83
2023/08/06 11:06:21;;;;;;;4.25;1.95;;;21.00;69.70;;;;;;5017170;28;20046;-83
2023/08/06 11:08:53;;;;;;;13.98;2.50;;;21.00;68.90;;;;;;5027260;28;20129;-84
2023/08/06 11:11:22;;;;;;;4.85;1.90;;;20.90;68.70;;;;;;5009967;28;20057;-83
2023/08/06 11:13:50;;;;;;;5.00;1.98;;;21.00;69.20;;;;;;5010478;28;21081;-82
2023/08/06 11:16:25;;;;;;;3.83;1.88;;;21.10;68.00;;;;;;5011433;28;20103;-82
2023/08/06 11:18:54;;;;;;;;;;;21.20;67.00;;;;;;5008904;28;20545;-78
2023/08/06 11:21:22;;;;;;;5.22;1.80;;;21.20;66.90;;;;;;5018281;28;19929;-84
2023/08/06 11:23:49;;;;;;;6.07;2.20;;;21.10;68.30;;;;;;5007091;28;20057;-82
2023/08/06 11:26:23;;;;;;;8.60;2.15;;;21.10;70.40;;;;;;5007188;28;20639;-80
2023/08/06 11:28:50;;;;;;;5.18;2.13;;;21.10;70.40;;;;;;5002440;28;20439;-79
2023/08/06 11:31:21;;;;;;;5.57;2.17;;;21.00;69.60;;;;;;5002007;28;20056;-79
2023/08/06 11:33:52;;;;;;;11.60;2.30;;;21.10;70.00;;;;;;5016282;28;20061;-79
2023/08/06 11:36:49;;;;;;;7.22;2.15;;;21.00;68.90;;;;;;5005123;28;20061;-82
2023/08/06 11:39:16;;;;;;;8.10;2.05;;;21.00;69.50;;;;;;4982485;28;20057;-81
2023/08/06 11:41:44;;;;;;;7.90;2.00;;;21.20;69.00;;;;;;4997078;28;20052;-81
2023/08/06 11:44:13;;;;;;;5.22;2.15;;;21.10;68.60;;;;;;4994523;28;20483;-84
2023/08/06 11:46:55;;;;;;;7.30;2.30;;;21.30;68.90;;;;;;5006430;28;20046;-80
2023/08/06 11:49:45;;;;;;;8.05;2.00;;;21.40;68.80;;;;;;5021304;28;20053;-85
2023/08/06 11:52:19;;;;;;;5.78;2.30;;;21.50;68.00;;;;;;5024144;28;20058;-86
2023/08/06 11:54:47;;;;;;;4.95;1.88;;;21.50;69.20;;;;;;5021595;28;20103;-86
2023/08/06 11:57:15;;;;;;;8.82;2.33;;;21.70;68.90;;;;;;5028220;28;20045;-85
2023/08/06 11:59:45;;;;;;;7.28;2.17;;;21.70;68.50;;;;;;5029780;28;20053;-86
2023/08/06 12:02:12;;;;;;;4.82;1.95;;;21.80;68.10;;;;;;5016143;28;20414;-86
2023/08/06 12:05:12;;;;;;;6.55;1.90;;;21.80;67.30;;;;;;5013633;28;20076;-85
2023/08/06 12:07:46;;;;;;;3.85;2.08;;;21.90;67.50;;;;;;4984838;28;20125;-86
2023/08/06 12:10:14;;;;;;;6.47;2.13;;;21.70;67.70;;;;;;5026418;28;20046;-85
2023/08/06 12:12:41;;;;;;;5.32;1.88;;;21.60;67.90;;;;;;5027906;28;20077;-86
2023/08/06 12:15:09;;;;;;;6.32;1.90;;;21.70;70.10;;;;;;5020152;28;20124;-86
2023/08/06 12:17:36;;;;;;;5.22;1.85;;;21.70;68.30;;;;;;5012012;28;20127;-86
2023/08/06 12:20:04;;;;;;;4.03;2.10;;;21.80;67.50;;;;;;5010367;28;20092;-86
2023/08/06 12:22:35;;;;;;;7.05;2.05;;;21.90;66.90;;;;;;5009157;28;20101;-86
2023/08/06 12:25:07;;;;;;;6.05;1.80;;;21.90;67.60;;;;;;5013530;28;20052;-85
2023/08/06 12:27:36;;;;;;;8.05;2.35;;;21.80;65.70;;;;;;5008626;28;20050;-86
2023/08/06 12:30:04;;;;;;;11.63;1.65;;;21.70;64.90;;;;;;5004686;28;20096;-85
2023/08/06 12:32:32;;;;;;;10.73;2.03;;;21.60;66.00;;;;;;5008910;28;20506;-85
2023/08/06 12:34:59;;;;;;;6.40;1.80;;;21.70;64.70;;;;;;5009472;28;20046;-86
2023/08/06 12:37:25;;;;;;;8.45;2.13;;;21.90;65.40;;;;;;5012254;28;20403;-86
2023/08/06 12:39:53;;;;;;;8.40;1.95;;;21.90;64.50;;;;;;5028654;28;20057;-86
2023/08/06 12:42:20;;;;;;;9.50;1.98;;;21.60;65.90;;;;;;5012734;28;20840;-86
2023/08/06 12:44:49;;;;;;;10.55;2.22;;;21.70;66.10;;;;;;5013534;28;20045;-86
2023/08/06 12:47:16;;;;;;;5.13;2.08;;;21.60;67.20;;;;;;5012637;28;20042;-86
2023/08/06 12:49:43;;;;;;;7.47;2.10;;;21.80;67.90;;;;;;5012510;28;20135;-86
2023/08/06 12:52:12;;;;;;;9.40;2.00;;;21.80;67.40;;;;;;5012341;28;20050;-85
2023/08/06 12:54:39;;;;;;;4.47;2.00;;;21.90;66.90;;;;;;5024077;28;20095;-85